createdAt,value
2018-08-18T00:01:54.208Z,8.97
2018-08-18T00:04:33.952Z,8.93
2018-08-18T00:07:04.592Z,8.43
2018-08-18T00:09:34.708Z,8.60
2018-08-18T00:12:04.779Z,8.67
2018-08-18T00:14:34.920Z,8.30
2018-08-18T00:17:06.238Z,7.93
2018-08-18T00:19:36.337Z,8.63
2018-08-18T00:22:06.439Z,8.27
2018-08-18T00:24:43.453Z,8.80
2018-08-18T00:27:13.591Z,7.97
2018-08-18T00:29:43.696Z,8.40
2018-08-18T00:32:13.830Z,8.50
2018-08-18T00:34:48.159Z,8.60
2018-08-18T00:37:18.361Z,8.17
2018-08-18T00:39:48.468Z,8.40
2018-08-18T00:42:18.625Z,9.20
2018-08-18T00:44:48.718Z,8.20
2018-08-18T00:47:18.859Z,8.53
2018-08-18T00:49:48.916Z,8.30
2018-08-18T00:52:19.100Z,9.20
2018-08-18T00:54:49.167Z,8.80
2018-08-18T00:57:31.148Z,8.40
2018-08-18T01:00:01.583Z,8.70
2018-08-18T01:02:31.680Z,9.10
2018-08-18T01:05:02.780Z,8.63
2018-08-18T01:07:33.467Z,8.67
2018-08-18T01:10:03.935Z,8.30
2018-08-18T01:12:35.109Z,8.70
2018-08-18T01:15:07.998Z,9.33
2018-08-18T01:17:38.200Z,8.93
2018-08-18T01:20:08.661Z,9.13
2018-08-18T01:22:38.758Z,8.77
2018-08-18T01:25:08.837Z,8.90
2018-08-18T01:27:51.360Z,9.00
2018-08-18T01:30:21.511Z,8.63
2018-08-18T01:32:51.616Z,8.30
2018-08-18T01:35:22.504Z,8.73
2018-08-18T01:37:52.619Z,8.87
2018-08-18T01:40:22.743Z,8.93
2018-08-18T01:42:52.879Z,8.93
2018-08-18T01:45:23.023Z,8.40
2018-08-18T01:47:53.112Z,8.10
2018-08-18T01:50:23.264Z,8.20
2018-08-18T01:52:53.396Z,10.27
2018-08-18T01:55:23.519Z,9.17
2018-08-18T01:57:53.612Z,8.97
2018-08-18T02:00:26.861Z,9.40
2018-08-18T02:02:57.001Z,8.80
2018-08-18T02:05:28.144Z,8.77
2018-08-18T02:07:58.296Z,9.50
2018-08-18T02:10:28.412Z,9.27
2018-08-18T02:13:07.219Z,8.87
2018-08-18T02:15:37.312Z,9.37
2018-08-18T02:18:07.675Z,8.73
2018-08-18T02:20:37.723Z,9.50
2018-08-18T02:23:07.857Z,10.00
2018-08-18T02:25:37.924Z,9.70
2018-08-18T02:28:13.005Z,9.10
2018-08-18T02:30:43.160Z,9.27
2018-08-18T02:33:13.313Z,8.63
2018-08-18T02:35:43.371Z,8.87
2018-08-18T02:38:13.509Z,9.47
2018-08-18T02:40:43.572Z,9.10
2018-08-18T02:43:24.706Z,8.83
2018-08-18T02:45:55.213Z,8.90
2018-08-18T02:48:25.356Z,8.73
2018-08-18T02:50:55.452Z,8.67
2018-08-18T02:53:29.212Z,8.70
2018-08-18T02:55:59.253Z,8.63
2018-08-18T02:58:29.414Z,8.87
2018-08-18T03:00:59.571Z,8.27
2018-08-18T03:03:29.697Z,8.80
2018-08-18T03:06:14.251Z,9.03
2018-08-18T03:08:44.662Z,8.80
2018-08-18T03:11:15.007Z,8.83
2018-08-18T03:13:45.286Z,9.53
2018-08-18T03:16:15.436Z,8.77
2018-08-18T03:18:49.724Z,8.30
2018-08-18T03:21:25.693Z,9.03
2018-08-18T03:24:12.079Z,9.27
2018-08-18T03:26:50.028Z,8.47
2018-08-18T03:29:21.021Z,9.17
2018-08-18T03:31:51.406Z,9.37
2018-08-18T03:34:21.770Z,9.53
2018-08-18T03:36:53.833Z,9.03
2018-08-18T03:39:29.716Z,9.13
2018-08-18T03:42:01.098Z,9.10
2018-08-18T03:44:31.397Z,8.97
2018-08-18T03:47:01.448Z,9.00
2018-08-18T03:49:31.633Z,9.70
2018-08-18T03:52:01.756Z,8.37
2018-08-18T03:54:31.908Z,9.07
2018-08-18T03:57:01.959Z,9.27
2018-08-18T03:59:32.115Z,8.77
2018-08-18T04:02:02.640Z,8.70
2018-08-18T04:04:34.289Z,9.43
2018-08-18T04:07:05.785Z,9.57
2018-08-18T04:09:37.070Z,9.03
2018-08-18T04:12:09.295Z,9.57
2018-08-18T04:14:40.487Z,10.13
2018-08-18T04:17:27.088Z,9.87
2018-08-18T04:19:57.216Z,8.73
2018-08-18T04:22:27.267Z,8.77
2018-08-18T04:24:57.775Z,8.43
2018-08-18T04:27:38.663Z,9.23
2018-08-18T04:30:13.563Z,8.27
2018-08-18T04:32:53.904Z,8.27
2018-08-18T04:35:25.194Z,8.67
2018-08-18T04:37:56.053Z,9.40
2018-08-18T04:40:26.535Z,9.20
2018-08-18T04:43:00.348Z,8.63
2018-08-18T04:45:30.543Z,9.10
2018-08-18T04:48:00.595Z,9.27
2018-08-18T04:50:30.802Z,9.53
2018-08-18T04:53:00.884Z,9.53
2018-08-18T04:55:31.028Z,9.57
2018-08-18T04:58:01.085Z,9.10
2018-08-18T05:00:31.217Z,9.10
2018-08-18T05:03:01.281Z,9.33
2018-08-18T05:05:32.633Z,9.70
2018-08-18T05:08:02.792Z,9.37
2018-08-18T05:10:32.892Z,9.30
2018-08-18T05:13:03.058Z,9.40
2018-08-18T05:15:33.187Z,9.30
2018-08-18T05:18:03.268Z,9.90
2018-08-18T05:20:33.396Z,8.77
2018-08-18T05:23:22.911Z,9.00
2018-08-18T05:25:54.291Z,9.20
2018-08-18T05:28:24.350Z,9.17
2018-08-18T05:30:54.976Z,9.30
2018-08-18T05:33:25.121Z,9.20
2018-08-18T05:35:55.231Z,9.17
2018-08-18T05:38:25.720Z,9.27
2018-08-18T05:40:56.108Z,9.57
2018-08-18T05:43:26.314Z,10.13
2018-08-18T05:45:56.387Z,9.70
2018-08-18T05:48:26.491Z,10.37
2018-08-18T05:50:56.612Z,10.33
2018-08-18T05:53:32.050Z,10.03
2018-08-18T05:56:02.828Z,10.23
2018-08-18T05:59:07.123Z,9.70
2018-08-18T06:01:39.036Z,9.87
2018-08-18T06:04:16.478Z,10.07
2018-08-18T06:06:47.666Z,10.37
2018-08-18T06:09:19.047Z,10.93
2018-08-18T06:11:49.372Z,9.10
2018-08-18T06:14:19.903Z,10.20
2018-08-18T06:16:50.053Z,9.67
2018-08-18T06:19:20.145Z,8.97
2018-08-18T06:21:50.217Z,9.93
2018-08-18T06:24:20.308Z,9.40
2018-08-18T06:26:50.380Z,8.70
2018-08-18T06:29:20.483Z,9.10
2018-08-18T06:32:02.563Z,8.63
2018-08-18T06:34:34.265Z,8.57
2018-08-18T06:37:04.297Z,8.20
2018-08-18T06:39:54.708Z,7.53
2018-08-18T06:42:34.224Z,8.43
2018-08-18T06:45:05.124Z,7.83
2018-08-18T06:47:35.184Z,7.57
2018-08-18T06:50:07.047Z,7.47
2018-08-18T06:52:37.159Z,7.17
2018-08-18T06:55:08.141Z,6.53
2018-08-18T06:57:48.576Z,7.10
2018-08-18T07:00:20.812Z,6.97
2018-08-18T07:02:50.972Z,6.87
2018-08-18T07:05:21.481Z,7.17
2018-08-18T07:07:51.619Z,6.90
2018-08-18T07:10:35.442Z,6.23
2018-08-18T07:13:07.058Z,5.43
2018-08-18T07:15:38.453Z,5.67
2018-08-18T07:18:10.826Z,5.70
2018-08-18T07:20:41.146Z,5.30
2018-08-18T07:23:11.211Z,5.20
2018-08-18T07:25:50.132Z,4.93
2018-08-18T07:28:21.852Z,6.07
2018-08-18T07:30:52.128Z,5.67
2018-08-18T07:33:22.352Z,5.27
2018-08-18T07:35:52.496Z,5.43
2018-08-18T07:38:22.605Z,5.80
2018-08-18T07:40:54.647Z,5.83
2018-08-18T07:43:33.564Z,5.30
2018-08-18T07:46:05.272Z,5.50
2018-08-18T07:48:35.328Z,5.17
2018-08-18T07:51:05.540Z,5.10
2018-08-18T07:53:35.642Z,5.73
2018-08-18T07:56:05.820Z,5.13
2018-08-18T07:58:38.297Z,5.40
2018-08-18T08:01:08.767Z,5.17
2018-08-18T08:03:38.835Z,5.10
2018-08-18T08:06:09.204Z,4.63
2018-08-18T08:08:44.328Z,6.07
2018-08-18T08:11:15.227Z,5.60
2018-08-18T08:13:45.287Z,5.03
2018-08-18T08:16:15.392Z,5.73
2018-08-18T08:18:45.460Z,5.50
2018-08-18T08:21:15.628Z,5.90
2018-08-18T08:23:45.732Z,6.03
2018-08-18T08:26:15.903Z,5.60
2018-08-18T08:28:45.978Z,6.47
2018-08-18T08:31:16.146Z,5.80
2018-08-18T08:33:46.209Z,5.43
2018-08-18T08:36:17.492Z,5.73
2018-08-18T08:38:59.389Z,5.57
2018-08-18T08:41:31.670Z,5.83
2018-08-18T08:44:02.057Z,5.53
2018-08-18T08:46:32.173Z,5.60
2018-08-18T08:49:02.633Z,5.97
2018-08-18T08:51:32.793Z,5.60
2018-08-18T08:54:02.880Z,5.23
2018-08-18T08:56:38.169Z,4.87
2018-08-18T08:59:08.261Z,4.70
2018-08-18T09:01:38.383Z,4.80
2018-08-18T09:04:08.464Z,4.40
2018-08-18T09:06:42.615Z,4.97
2018-08-18T09:09:12.695Z,5.07
2018-08-18T09:11:42.830Z,4.53
2018-08-18T09:14:13.024Z,5.20
2018-08-18T09:16:43.139Z,4.67
2018-08-18T09:19:13.255Z,4.93
2018-08-18T09:21:50.233Z,4.30
2018-08-18T09:24:21.612Z,4.53
2018-08-18T09:26:53.379Z,4.30
2018-08-18T09:29:24.279Z,4.70
2018-08-18T09:31:54.520Z,4.80
2018-08-18T09:34:24.623Z,4.67
2018-08-18T09:36:54.760Z,4.37
2018-08-18T09:39:32.807Z,4.30
2018-08-18T09:42:05.348Z,4.90
2018-08-18T09:44:36.886Z,4.67
2018-08-18T09:47:07.207Z,3.70
2018-08-18T09:49:37.317Z,4.27
2018-08-18T09:52:09.133Z,4.63
2018-08-18T09:54:39.232Z,4.23
2018-08-18T09:57:09.400Z,4.63
2018-08-18T09:59:39.584Z,3.93
2018-08-18T10:02:11.833Z,4.37
2018-08-18T10:04:42.010Z,4.20
2018-08-18T10:07:12.265Z,4.67
2018-08-18T10:09:42.383Z,4.23
2018-08-18T10:12:12.464Z,4.50
2018-08-18T10:14:42.565Z,4.40
2018-08-18T10:17:12.635Z,4.40
2018-08-18T10:19:42.765Z,4.17
2018-08-18T10:22:12.842Z,3.70
2018-08-18T10:24:42.958Z,4.10
2018-08-18T10:27:13.057Z,4.63
2018-08-18T10:29:43.199Z,3.93
2018-08-18T10:32:13.263Z,4.37
2018-08-18T10:34:43.373Z,4.50
2018-08-18T10:37:14.687Z,3.97
2018-08-18T10:39:44.809Z,4.50
2018-08-18T10:42:21.736Z,3.47
2018-08-18T10:44:56.871Z,4.17
2018-08-18T10:47:26.944Z,4.10
2018-08-18T10:50:13.700Z,4.03
2018-08-18T10:52:59.862Z,4.70
2018-08-18T10:55:29.977Z,4.70
2018-08-18T10:58:04.758Z,4.40
2018-08-18T11:00:35.795Z,4.17
2018-08-18T11:03:07.935Z,5.23
2018-08-18T11:05:38.060Z,4.90
2018-08-18T11:08:09.128Z,5.00
2018-08-18T11:10:42.344Z,4.70
2018-08-18T11:13:12.439Z,4.77
2018-08-18T11:15:43.390Z,4.70
2018-08-18T11:18:13.701Z,5.20
2018-08-18T11:20:43.835Z,4.73
2018-08-18T11:23:14.833Z,4.30
2018-08-18T11:25:55.889Z,4.63
2018-08-18T11:28:26.021Z,4.50
2018-08-18T11:30:56.388Z,4.67
2018-08-18T11:33:41.933Z,4.97
2018-08-18T11:36:12.807Z,4.80
2018-08-18T11:38:42.886Z,5.30
2018-08-18T11:41:13.047Z,4.67
2018-08-18T11:43:50.089Z,4.23
2018-08-18T11:46:20.201Z,4.50
2018-08-18T11:48:50.272Z,4.77
2018-08-18T11:51:20.429Z,4.43
2018-08-18T11:54:01.200Z,4.47
2018-08-18T11:56:33.383Z,4.73
2018-08-18T11:59:13.655Z,5.30
2018-08-18T12:01:47.194Z,4.83
2018-08-18T12:04:17.962Z,4.57
2018-08-18T12:06:53.236Z,4.03
2018-08-18T12:09:23.639Z,5.45
2018-08-18T12:11:53.867Z,4.50
2018-08-18T12:14:23.969Z,5.20
2018-08-18T12:16:54.103Z,5.00
2018-08-18T12:19:24.286Z,4.63
2018-08-18T12:21:55.575Z,4.40
2018-08-18T12:24:25.643Z,4.77
2018-08-18T12:27:10.571Z,4.12
2018-08-18T12:29:40.671Z,4.37
2018-08-18T12:32:41.528Z,3.97
2018-08-18T12:35:11.597Z,4.42
2018-08-18T12:37:41.724Z,4.92
2018-08-18T12:40:11.824Z,4.37
2018-08-18T12:42:43.836Z,4.65
2018-08-18T12:45:13.927Z,3.90
2018-08-18T12:48:01.509Z,4.40
2018-08-18T12:50:32.767Z,4.20
2018-08-18T12:53:02.936Z,4.73
2018-08-18T12:55:33.005Z,4.90
2018-08-18T12:58:03.140Z,4.87
2018-08-18T13:00:33.206Z,4.30
2018-08-18T13:03:03.312Z,4.33
2018-08-18T13:05:33.423Z,4.37
2018-08-18T13:08:03.583Z,4.60
2018-08-18T13:10:33.657Z,4.08
2018-08-18T13:13:03.829Z,3.83
2018-08-18T13:15:33.942Z,3.70
2018-08-18T13:18:04.083Z,4.05
2018-08-18T13:20:34.148Z,3.77
2018-08-18T13:23:04.285Z,4.10
2018-08-18T13:25:34.380Z,3.80
2018-08-18T13:28:06.369Z,3.50
2018-08-18T13:30:36.431Z,3.70
2018-08-18T13:33:06.617Z,3.75
2018-08-18T13:35:36.669Z,3.45
2018-08-18T13:38:11.760Z,3.75
2018-08-18T13:40:41.865Z,3.33
2018-08-18T13:43:11.990Z,3.22
2018-08-18T13:45:46.047Z,3.47
2018-08-18T13:48:16.114Z,3.52
2018-08-18T13:50:46.319Z,3.52
2018-08-18T13:53:16.423Z,3.60
2018-08-18T13:55:46.583Z,3.37
2018-08-18T13:58:16.651Z,3.10
2018-08-18T14:00:46.827Z,3.40
2018-08-18T14:03:28.305Z,3.12
2018-08-18T14:05:58.429Z,3.47
2018-08-18T14:08:28.548Z,3.35
2018-08-18T14:10:58.696Z,2.85
2018-08-18T14:13:30.086Z,3.47
2018-08-18T14:16:00.209Z,2.92
2018-08-18T14:18:30.420Z,3.20
2018-08-18T14:21:06.591Z,3.65
2018-08-18T14:23:36.948Z,2.83
2018-08-18T14:26:07.097Z,3.20
2018-08-18T14:28:37.220Z,3.20
2018-08-18T14:31:07.369Z,3.02
2018-08-18T14:33:37.452Z,3.30
2018-08-18T14:36:13.007Z,3.08
2018-08-18T14:38:45.160Z,3.05
2018-08-18T14:41:19.784Z,3.00
2018-08-18T14:43:49.847Z,2.95
2018-08-18T14:46:20.004Z,3.10
2018-08-18T14:48:50.083Z,3.27
2018-08-18T14:51:20.272Z,2.75
2018-08-18T14:53:50.328Z,2.90
2018-08-18T14:56:20.445Z,3.12
2018-08-18T14:58:50.520Z,3.42
2018-08-18T15:01:20.685Z,3.20
2018-08-18T15:03:50.773Z,2.52
2018-08-18T15:06:20.892Z,2.40
2018-08-18T15:08:50.986Z,2.37
2018-08-18T15:11:21.100Z,2.55
2018-08-18T15:13:51.207Z,2.60
2018-08-18T15:16:21.279Z,2.52
2018-08-18T15:18:51.396Z,2.33
2018-08-18T15:21:21.458Z,2.92
2018-08-18T15:23:51.576Z,2.27
2018-08-18T15:26:21.664Z,2.50
2018-08-18T15:28:51.779Z,2.27
2018-08-18T15:31:21.876Z,2.47
2018-08-18T15:33:51.992Z,2.35
2018-08-18T15:36:33.675Z,2.50
2018-08-18T15:39:03.900Z,2.42
2018-08-18T15:41:34.933Z,2.25
2018-08-18T15:44:09.360Z,2.58
2018-08-18T15:46:39.431Z,2.30
2018-08-18T15:49:09.785Z,2.45
2018-08-18T15:51:40.568Z,2.50
2018-08-18T15:54:10.821Z,2.30
2018-08-18T15:56:41.677Z,2.30
2018-08-18T15:59:11.992Z,2.70
2018-08-18T16:01:42.163Z,2.75
2018-08-18T16:04:12.329Z,2.47
2018-08-18T16:06:42.406Z,2.25
2018-08-18T16:09:12.520Z,2.22
2018-08-18T16:11:42.599Z,2.22
2018-08-18T16:14:12.716Z,2.55
2018-08-18T16:17:00.663Z,2.00
2018-08-18T16:19:35.431Z,2.35
2018-08-18T16:22:06.316Z,2.17
2018-08-18T16:24:46.523Z,2.50
2018-08-18T16:27:16.603Z,2.60
2018-08-18T16:29:46.699Z,2.05
2018-08-18T16:32:24.617Z,2.35
2018-08-18T16:35:02.802Z,2.30
2018-08-18T16:37:35.939Z,2.20
2018-08-18T16:40:06.093Z,2.37
2018-08-18T16:42:36.261Z,2.50
2018-08-18T16:45:07.087Z,2.70
2018-08-18T16:47:40.582Z,2.05
2018-08-18T16:50:10.745Z,2.20
2018-08-18T16:52:41.043Z,2.15
2018-08-18T16:55:11.180Z,2.25
2018-08-18T16:57:41.261Z,2.33
2018-08-18T17:00:11.524Z,2.25
2018-08-18T17:02:41.679Z,1.95
2018-08-18T17:05:11.853Z,2.20
2018-08-18T17:07:43.834Z,2.22
2018-08-18T17:10:13.904Z,2.27
2018-08-18T17:12:44.065Z,2.02
2018-08-18T17:15:14.145Z,2.25
2018-08-18T17:17:44.255Z,2.45
2018-08-18T17:20:14.412Z,2.40
2018-08-18T17:22:46.112Z,2.10
2018-08-18T17:25:16.168Z,2.12
2018-08-18T17:27:46.280Z,2.30
2018-08-18T17:30:16.464Z,2.20
2018-08-18T17:32:46.526Z,2.42
2018-08-18T17:35:16.589Z,1.95
2018-08-18T17:37:46.735Z,2.00
2018-08-18T17:40:16.809Z,2.20
2018-08-18T17:42:46.946Z,2.50
2018-08-18T17:45:17.040Z,3.30
2018-08-18T17:47:51.215Z,3.02
2018-08-18T17:50:21.348Z,3.27
2018-08-18T17:52:51.504Z,2.52
2018-08-18T17:55:21.642Z,3.20
2018-08-18T17:57:51.774Z,2.72
2018-08-18T18:00:23.615Z,2.72
2018-08-18T18:02:56.677Z,2.37
2018-08-18T18:05:32.208Z,2.67
2018-08-18T18:08:06.879Z,2.27
2018-08-18T18:10:38.500Z,2.52
2018-08-18T18:13:17.934Z,2.90
2018-08-18T18:15:48.811Z,2.42
2018-08-18T18:18:20.167Z,2.40
2018-08-18T18:20:51.571Z,2.43
2018-08-18T18:23:22.152Z,2.37
2018-08-18T18:25:52.215Z,2.40
2018-08-18T18:28:22.383Z,2.70
2018-08-18T18:30:53.737Z,2.80
2018-08-18T18:33:23.981Z,2.60
2018-08-18T18:35:54.136Z,2.50
2018-08-18T18:38:24.260Z,2.53
2018-08-18T18:40:54.341Z,2.60
2018-08-18T18:43:24.488Z,2.67
2018-08-18T18:45:54.918Z,2.70
2018-08-18T18:48:24.948Z,2.37
2018-08-18T18:50:55.096Z,2.20
2018-08-18T18:53:25.280Z,2.50
2018-08-18T18:55:55.488Z,2.27
2018-08-18T18:58:25.752Z,2.30
2018-08-18T19:01:01.033Z,2.23
2018-08-18T19:03:31.128Z,2.30
2018-08-18T19:06:01.248Z,2.13
2018-08-18T19:08:31.333Z,2.53
2018-08-18T19:11:04.675Z,2.43
2018-08-18T19:13:34.744Z,2.30
2018-08-18T19:16:04.923Z,2.33
2018-08-18T19:18:34.987Z,2.77
2018-08-18T19:21:05.148Z,1.90
2018-08-18T19:23:35.219Z,2.40
2018-08-18T19:26:05.353Z,2.40
2018-08-18T19:28:35.501Z,2.33
2018-08-18T19:31:05.592Z,2.27
2018-08-18T19:33:35.656Z,2.17
2018-08-18T19:36:05.792Z,2.37
2018-08-18T19:38:35.859Z,2.17
2018-08-18T19:41:05.969Z,2.40
2018-08-18T19:43:36.652Z,2.53
2018-08-18T19:46:06.764Z,2.20
2018-08-18T19:48:36.843Z,2.43
2018-08-18T19:51:07.096Z,2.60
2018-08-18T19:53:37.187Z,2.43
2018-08-18T19:56:11.004Z,2.60
2018-08-18T19:58:41.112Z,2.57
2018-08-18T20:01:11.230Z,3.00
2018-08-18T20:03:41.274Z,2.37
2018-08-18T20:06:16.238Z,2.60
2018-08-18T20:08:46.399Z,2.50
2018-08-18T20:11:16.603Z,2.67
2018-08-18T20:13:46.672Z,2.50
2018-08-18T20:16:16.804Z,2.50
2018-08-18T20:18:46.940Z,2.27
2018-08-18T20:21:17.017Z,2.33
2018-08-18T20:23:47.126Z,2.50
2018-08-18T20:26:17.194Z,2.57
2018-08-18T20:28:47.303Z,2.40
2018-08-18T20:31:17.439Z,2.63
2018-08-18T20:33:49.563Z,2.27
2018-08-18T20:36:19.623Z,2.37
2018-08-18T20:38:49.762Z,2.70
2018-08-18T20:41:19.815Z,2.80
2018-08-18T20:43:49.931Z,2.53
2018-08-18T20:46:20.011Z,2.57
2018-08-18T20:48:50.127Z,2.63
2018-08-18T20:51:24.296Z,2.50
2018-08-18T20:53:54.420Z,2.40
2018-08-18T20:56:24.494Z,2.70
2018-08-18T20:58:54.624Z,2.77
2018-08-18T21:01:24.679Z,3.13
2018-08-18T21:03:54.860Z,3.70
2018-08-18T21:06:24.961Z,2.83
2018-08-18T21:08:55.106Z,2.83
2018-08-18T21:11:25.164Z,2.90
2018-08-18T21:13:56.166Z,2.90
2018-08-18T21:16:26.683Z,2.80
2018-08-18T21:18:56.817Z,2.97
2018-08-18T21:21:31.856Z,2.60
2018-08-18T21:24:01.997Z,2.73
2018-08-18T21:26:32.085Z,2.87
2018-08-18T21:29:02.265Z,2.70
2018-08-18T21:31:33.282Z,2.90
2018-08-18T21:34:04.724Z,2.87
2018-08-18T21:36:35.239Z,2.53
2018-08-18T21:39:09.488Z,2.57
2018-08-18T21:41:42.599Z,3.10
2018-08-18T21:44:14.175Z,2.90
2018-08-18T21:46:44.371Z,2.80
2018-08-18T21:49:14.599Z,2.67
2018-08-18T21:51:44.698Z,2.80
2018-08-18T21:54:14.802Z,2.63
2018-08-18T21:56:44.898Z,3.13
2018-08-18T21:59:15.222Z,2.73
2018-08-18T22:01:45.603Z,3.00
2018-08-18T22:04:15.707Z,3.03
2018-08-18T22:06:45.804Z,3.30
2018-08-18T22:09:25.531Z,2.90
2018-08-18T22:11:55.609Z,3.00
2018-08-18T22:14:25.751Z,3.33
2018-08-18T22:16:56.261Z,3.00
2018-08-18T22:19:27.360Z,2.93
2018-08-18T22:21:57.449Z,3.00
2018-08-18T22:24:27.535Z,3.07
2018-08-18T22:26:57.640Z,3.23
2018-08-18T22:29:27.759Z,2.53
2018-08-18T22:31:57.859Z,2.87
2018-08-18T22:34:27.924Z,2.93
2018-08-18T22:37:03.968Z,3.00
2018-08-18T22:39:34.048Z,2.77
2018-08-18T22:42:04.176Z,2.67
2018-08-18T22:44:34.237Z,2.87
2018-08-18T22:47:04.960Z,3.30
2018-08-18T22:49:35.021Z,2.70
2018-08-18T22:52:05.477Z,2.90
2018-08-18T22:54:35.562Z,2.60
2018-08-18T22:57:06.318Z,3.00
2018-08-18T22:59:36.400Z,3.00
2018-08-18T23:02:06.724Z,3.10
2018-08-18T23:04:38.152Z,3.13
2018-08-18T23:07:09.143Z,3.17
2018-08-18T23:09:39.211Z,2.60
2018-08-18T23:12:09.681Z,3.37
2018-08-18T23:14:40.795Z,3.00
2018-08-18T23:17:12.341Z,3.33
2018-08-18T23:19:42.399Z,3.53
2018-08-18T23:22:29.177Z,3.77
2018-08-18T23:24:59.236Z,3.27
2018-08-18T23:27:29.681Z,2.90
2018-08-18T23:29:59.737Z,3.07
2018-08-18T23:32:29.896Z,3.33
2018-08-18T23:34:59.972Z,3.10
2018-08-18T23:37:30.082Z,3.00
2018-08-18T23:40:00.201Z,2.90
2018-08-18T23:42:30.312Z,2.83
2018-08-18T23:45:00.428Z,3.30
2018-08-18T23:47:30.552Z,3.00
2018-08-18T23:50:00.668Z,3.30
2018-08-18T23:52:30.809Z,2.63
2018-08-18T23:55:00.949Z,2.73
2018-08-18T23:57:31.004Z,2.80
